sensor_id;sensor_type;location;lat;lon;timestamp;temperature;humidity
56103;DHT22;41970;48.774;9.280;2023-05-24T00:02:07;15.30;99.90
56103;DHT22;41970;48.774;9.280;2023-05-24T00:04:38;15.30;99.90
56103;DHT22;41970;48.774;9.280;2023-05-24T00:07:04;15.40;99.90
56103;DHT22;41970;48.774;9.280;2023-05-24T00:09:31;15.40;99.90
56103;DHT22;41970;48.774;9.280;2023-05-24T00:11:57;15.30;99.90
56103;DHT22;41970;48.774;9.280;2023-05-24T00:14:23;15.20;99.90
56103;DHT22;41970;48.774;9.280;2023-05-24T00:16:49;15.20;99.90
56103;DHT22;41970;48.774;9.280;2023-05-24T00:19:15;15.30;99.90
56103;DHT22;41970;48.774;9.280;2023-05-24T00:21:46;15.30;99.90
56103;DHT22;41970;48.774;9.280;2023-05-24T00:24:12;15.30;99.90
56103;DHT22;41970;48.774;9.280;2023-05-24T00:26:39;15.30;99.90
56103;DHT22;41970;48.774;9.280;2023-05-24T00:29:05;15.20;99.90
56103;DHT22;41970;48.774;9.280;2023-05-24T00:31:31;15.30;99.90
56103;DHT22;41970;48.774;9.280;2023-05-24T00:33:57;15.30;99.90
56103;DHT22;41970;48.774;9.280;2023-05-24T00:36:22;15.20;99.90
56103;DHT22;41970;48.774;9.280;2023-05-24T00:38:48;15.20;99.90
56103;DHT22;41970;48.774;9.280;2023-05-24T00:41:14;15.20;99.90
56103;DHT22;41970;48.774;9.280;2023-05-24T00:43:40;15.20;99.80
56103;DHT22;41970;48.774;9.280;2023-05-24T00:46:13;15.20;99.60
56103;DHT22;41970;48.774;9.280;2023-05-24T00:48:40;15.20;99.70
56103;DHT22;41970;48.774;9.280;2023-05-24T00:51:06;15.00;99.50
56103;DHT22;41970;48.774;9.280;2023-05-24T00:53:32;15.00;99.80
56103;DHT22;41970;48.774;9.280;2023-05-24T00:56:00;15.10;99.60
56103;DHT22;41970;48.774;9.280;2023-05-24T00:58:27;15.10;99.20
56103;DHT22;41970;48.774;9.280;2023-05-24T01:01:00;15.10;99.10
56103;DHT22;41970;48.774;9.280;2023-05-24T01:03:27;15.20;99.10
56103;DHT22;41970;48.774;9.280;2023-05-24T01:06:00;15.20;98.70
56103;DHT22;41970;48.774;9.280;2023-05-24T01:16:50;15.20;98.10
56103;DHT22;41970;48.774;9.280;2023-05-24T01:25:01;15.20;98.10
56103;DHT22;41970;48.774;9.280;2023-05-24T01:27:29;15.10;98.20
56103;DHT22;41970;48.774;9.280;2023-05-24T01:29:55;15.10;98.30
56103;DHT22;41970;48.774;9.280;2023-05-24T01:32:22;15.10;98.80
56103;DHT22;41970;48.774;9.280;2023-05-24T01:34:48;15.10;98.30
56103;DHT22;41970;48.774;9.280;2023-05-24T01:37:17;15.20;98.20
56103;DHT22;41970;48.774;9.280;2023-05-24T01:39:42;15.10;98.20
56103;DHT22;41970;48.774;9.280;2023-05-24T01:42:25;15.10;98.30
56103;DHT22;41970;48.774;9.280;2023-05-24T01:45:18;15.00;98.50
56103;DHT22;41970;48.774;9.280;2023-05-24T01:48:23;15.00;98.50
56103;DHT22;41970;48.774;9.280;2023-05-24T01:50:58;14.90;98.80
56103;DHT22;41970;48.774;9.280;2023-05-24T01:53:31;15.00;98.70
56103;DHT22;41970;48.774;9.280;2023-05-24T01:56:03;15.00;98.60
56103;DHT22;41970;48.774;9.280;2023-05-24T01:58:31;15.00;98.70
56103;DHT22;41970;48.774;9.280;2023-05-24T02:00:58;15.10;98.60
56103;DHT22;41970;48.774;9.280;2023-05-24T02:03:24;15.20;98.60
56103;DHT22;41970;48.774;9.280;2023-05-24T02:05:50;15.20;98.60
56103;DHT22;41970;48.774;9.280;2023-05-24T02:08:15;15.30;98.70
56103;DHT22;41970;48.774;9.280;2023-05-24T02:10:42;15.30;99.00
56103;DHT22;41970;48.774;9.280;2023-05-24T02:13:08;15.20;99.30
56103;DHT22;41970;48.774;9.280;2023-05-24T02:15:34;15.20;99.20
56103;DHT22;41970;48.774;9.280;2023-05-24T02:18:00;15.10;98.80
56103;DHT22;41970;48.774;9.280;2023-05-24T02:20:27;15.10;98.90
56103;DHT22;41970;48.774;9.280;2023-05-24T02:22:56;15.00;98.90
56103;DHT22;41970;48.774;9.280;2023-05-24T02:25:22;15.00;99.10
56103;DHT22;41970;48.774;9.280;2023-05-24T02:27:48;15.00;98.90
56103;DHT22;41970;48.774;9.280;2023-05-24T02:30:13;15.00;98.90
56103;DHT22;41970;48.774;9.280;2023-05-24T02:32:39;15.00;99.20
56103;DHT22;41970;48.774;9.280;2023-05-24T02:35:05;15.00;99.00
56103;DHT22;41970;48.774;9.280;2023-05-24T02:37:32;14.90;99.30
56103;DHT22;41970;48.774;9.280;2023-05-24T02:39:58;14.80;99.50
56103;DHT22;41970;48.774;9.280;2023-05-24T02:42:23;14.80;99.30
56103;DHT22;41970;48.774;9.280;2023-05-24T02:44:49;14.80;99.80
56103;DHT22;41970;48.774;9.280;2023-05-24T02:47:17;14.70;99.50
56103;DHT22;41970;48.774;9.280;2023-05-24T02:49:43;14.70;99.50
56103;DHT22;41970;48.774;9.280;2023-05-24T02:52:09;14.60;99.80
56103;DHT22;41970;48.774;9.280;2023-05-24T02:54:35;14.60;99.70
56103;DHT22;41970;48.774;9.280;2023-05-24T02:57:01;14.60;99.70
56103;DHT22;41970;48.774;9.280;2023-05-24T02:59:27;14.50;99.90
56103;DHT22;41970;48.774;9.280;2023-05-24T03:01:53;14.50;99.90
56103;DHT22;41970;48.774;9.280;2023-05-24T03:04:19;14.30;99.90
56103;DHT22;41970;48.774;9.280;2023-05-24T03:06:44;14.30;99.90
56103;DHT22;41970;48.774;9.280;2023-05-24T03:09:11;14.30;99.90
56103;DHT22;41970;48.774;9.280;2023-05-24T03:11:37;14.40;99.90
56103;DHT22;41970;48.774;9.280;2023-05-24T03:14:03;14.40;99.90
56103;DHT22;41970;48.774;9.280;2023-05-24T03:16:30;14.40;99.90
56103;DHT22;41970;48.774;9.280;2023-05-24T03:18:57;14.30;99.90
56103;DHT22;41970;48.774;9.280;2023-05-24T03:21:24;14.30;99.90
56103;DHT22;41970;48.774;9.280;2023-05-24T03:23:50;14.30;99.90
56103;DHT22;41970;48.774;9.280;2023-05-24T03:26:16;14.20;99.90
56103;DHT22;41970;48.774;9.280;2023-05-24T03:28:43;14.20;99.90
56103;DHT22;41970;48.774;9.280;2023-05-24T03:31:10;14.10;99.90
56103;DHT22;41970;48.774;9.280;2023-05-24T03:33:36;14.10;99.90
56103;DHT22;41970;48.774;9.280;2023-05-24T03:36:02;14.10;99.90
56103;DHT22;41970;48.774;9.280;2023-05-24T03:38:29;14.00;99.90
56103;DHT22;41970;48.774;9.280;2023-05-24T03:40:55;14.00;99.90
56103;DHT22;41970;48.774;9.280;2023-05-24T03:43:21;14.00;99.90
56103;DHT22;41970;48.774;9.280;2023-05-24T03:45:47;13.90;99.90
56103;DHT22;41970;48.774;9.280;2023-05-24T03:48:13;13.90;99.90
56103;DHT22;41970;48.774;9.280;2023-05-24T03:50:38;13.90;99.90
56103;DHT22;41970;48.774;9.280;2023-05-24T03:53:04;13.80;99.90
56103;DHT22;41970;48.774;9.280;2023-05-24T03:55:30;13.80;99.90
56103;DHT22;41970;48.774;9.280;2023-05-24T03:57:56;13.90;99.90
56103;DHT22;41970;48.774;9.280;2023-05-24T04:00:21;13.90;99.90
56103;DHT22;41970;48.774;9.280;2023-05-24T04:02:50;13.90;99.90
56103;DHT22;41970;48.774;9.280;2023-05-24T04:05:16;13.90;99.90
56103;DHT22;41970;48.774;9.280;2023-05-24T04:07:41;13.80;99.90
56103;DHT22;41970;48.774;9.280;2023-05-24T04:10:09;13.80;99.90
56103;DHT22;41970;48.774;9.280;2023-05-24T04:12:35;13.70;99.90
56103;DHT22;41970;48.774;9.280;2023-05-24T04:15:02;13.80;99.90
56103;DHT22;41970;48.774;9.280;2023-05-24T04:17:28;13.80;99.90
56103;DHT22;41970;48.774;9.280;2023-05-24T04:19:57;13.80;99.90
56103;DHT22;41970;48.774;9.280;2023-05-24T04:22:22;13.80;99.90
56103;DHT22;41970;48.774;9.280;2023-05-24T04:24:48;13.80;99.90
56103;DHT22;41970;48.774;9.280;2023-05-24T04:27:14;13.80;99.90
56103;DHT22;41970;48.774;9.280;2023-05-24T04:29:40;13.80;99.90
56103;DHT22;41970;48.774;9.280;2023-05-24T04:32:06;13.90;99.90
56103;DHT22;41970;48.774;9.280;2023-05-24T04:34:34;13.90;99.90
56103;DHT22;41970;48.774;9.280;2023-05-24T04:37:00;14.00;99.90
56103;DHT22;41970;48.774;9.280;2023-05-24T04:39:28;14.00;99.90
56103;DHT22;41970;48.774;9.280;2023-05-24T04:41:54;14.00;99.90
56103;DHT22;41970;48.774;9.280;2023-05-24T04:44:22;14.00;99.90
56103;DHT22;41970;48.774;9.280;2023-05-24T04:46:49;14.00;99.90
56103;DHT22;41970;48.774;9.280;2023-05-24T04:49:15;14.00;99.90
56103;DHT22;41970;48.774;9.280;2023-05-24T04:51:41;14.00;99.90
56103;DHT22;41970;48.774;9.280;2023-05-24T04:54:07;13.90;99.90
56103;DHT22;41970;48.774;9.280;2023-05-24T04:56:36;13.90;99.90
56103;DHT22;41970;48.774;9.280;2023-05-24T04:59:05;13.80;99.90
56103;DHT22;41970;48.774;9.280;2023-05-24T05:01:31;13.80;99.90
56103;DHT22;41970;48.774;9.280;2023-05-24T05:03:57;13.80;99.90
56103;DHT22;41970;48.774;9.280;2023-05-24T05:06:23;13.70;99.90
56103;DHT22;41970;48.774;9.280;2023-05-24T05:08:49;13.70;99.90
56103;DHT22;41970;48.774;9.280;2023-05-24T05:11:17;13.70;99.90
56103;DHT22;41970;48.774;9.280;2023-05-24T05:13:45;13.70;99.90
56103;DHT22;41970;48.774;9.280;2023-05-24T05:16:11;13.70;99.90
56103;DHT22;41970;48.774;9.280;2023-05-24T05:27:14;13.50;99.90
56103;DHT22;41970;48.774;9.280;2023-05-24T05:29:40;13.50;99.90
56103;DHT22;41970;48.774;9.280;2023-05-24T05:32:06;13.40;99.90
56103;DHT22;41970;48.774;9.280;2023-05-24T05:34:31;13.40;99.90
56103;DHT22;41970;48.774;9.280;2023-05-24T05:36:57;13.40;99.90
56103;DHT22;41970;48.774;9.280;2023-05-24T05:39:23;13.40;99.90
56103;DHT22;41970;48.774;9.280;2023-05-24T05:41:49;13.40;99.90
56103;DHT22;41970;48.774;9.280;2023-05-24T05:44:15;13.40;99.90
56103;DHT22;41970;48.774;9.280;2023-05-24T05:46:40;13.50;99.90
56103;DHT22;41970;48.774;9.280;2023-05-24T05:49:08;13.50;99.90
56103;DHT22;41970;48.774;9.280;2023-05-24T05:51:34;13.50;99.90
56103;DHT22;41970;48.774;9.280;2023-05-24T05:54:01;13.50;99.90
56103;DHT22;41970;48.774;9.280;2023-05-24T05:56:27;13.40;99.90
56103;DHT22;41970;48.774;9.280;2023-05-24T05:58:53;13.40;99.90
56103;DHT22;41970;48.774;9.280;2023-05-24T06:01:18;13.50;99.90
56103;DHT22;41970;48.774;9.280;2023-05-24T06:03:44;13.50;99.90
56103;DHT22;41970;48.774;9.280;2023-05-24T06:06:10;13.50;99.90
56103;DHT22;41970;48.774;9.280;2023-05-24T06:08:36;13.40;99.90
56103;DHT22;41970;48.774;9.280;2023-05-24T06:11:02;13.40;99.90
56103;DHT22;41970;48.774;9.280;2023-05-24T06:13:27;13.50;99.90
56103;DHT22;41970;48.774;9.280;2023-05-24T06:15:54;13.50;99.90
56103;DHT22;41970;48.774;9.280;2023-05-24T06:18:19;13.60;99.90
56103;DHT22;41970;48.774;9.280;2023-05-24T06:20:45;13.60;99.90
56103;DHT22;41970;48.774;9.280;2023-05-24T06:23:12;13.70;99.90
56103;DHT22;41970;48.774;9.280;2023-05-24T06:25:37;13.60;99.90
56103;DHT22;41970;48.774;9.280;2023-05-24T06:28:05;13.60;99.90
56103;DHT22;41970;48.774;9.280;2023-05-24T06:30:31;13.40;99.90
56103;DHT22;41970;48.774;9.280;2023-05-24T06:32:58;13.50;99.90
56103;DHT22;41970;48.774;9.280;2023-05-24T06:35:23;13.60;99.90
56103;DHT22;41970;48.774;9.280;2023-05-24T06:37:49;13.70;99.90
56103;DHT22;41970;48.774;9.280;2023-05-24T06:40:15;13.70;99.90
56103;DHT22;41970;48.774;9.280;2023-05-24T06:42:41;13.70;99.90
56103;DHT22;41970;48.774;9.280;2023-05-24T06:45:07;13.70;99.90
56103;DHT22;41970;48.774;9.280;2023-05-24T06:47:34;13.80;99.90
56103;DHT22;41970;48.774;9.280;2023-05-24T06:50:00;13.70;99.90
56103;DHT22;41970;48.774;9.280;2023-05-24T06:52:26;13.80;99.90
56103;DHT22;41970;48.774;9.280;2023-05-24T06:54:52;13.80;99.90
56103;DHT22;41970;48.774;9.280;2023-05-24T06:57:17;13.80;99.90
56103;DHT22;41970;48.774;9.280;2023-05-24T06:59:43;13.70;99.90
56103;DHT22;41970;48.774;9.280;2023-05-24T07:02:09;13.70;99.90
56103;DHT22;41970;48.774;9.280;2023-05-24T07:04:35;13.70;99.90
56103;DHT22;41970;48.774;9.280;2023-05-24T07:07:01;13.80;99.90
56103;DHT22;41970;48.774;9.280;2023-05-24T07:09:27;13.90;99.90
56103;DHT22;41970;48.774;9.280;2023-05-24T07:11:53;13.90;99.90
56103;DHT22;41970;48.774;9.280;2023-05-24T07:14:19;13.90;99.90
56103;DHT22;41970;48.774;9.280;2023-05-24T07:16:44;13.90;99.90
56103;DHT22;41970;48.774;9.280;2023-05-24T07:19:11;13.90;99.90
56103;DHT22;41970;48.774;9.280;2023-05-24T07:21:37;13.90;99.90
56103;DHT22;41970;48.774;9.280;2023-05-24T07:24:03;13.90;99.90
56103;DHT22;41970;48.774;9.280;2023-05-24T07:26:29;13.80;99.90
56103;DHT22;41970;48.774;9.280;2023-05-24T07:28:55;13.80;99.90
56103;DHT22;41970;48.774;9.280;2023-05-24T07:31:21;13.70;99.90
56103;DHT22;41970;48.774;9.280;2023-05-24T07:33:47;13.70;99.90
56103;DHT22;41970;48.774;9.280;2023-05-24T07:36:13;13.70;99.90
56103;DHT22;41970;48.774;9.280;2023-05-24T07:38:39;13.60;99.90
56103;DHT22;41970;48.774;9.280;2023-05-24T07:41:06;13.70;99.90
56103;DHT22;41970;48.774;9.280;2023-05-24T07:43:32;13.70;99.90
56103;DHT22;41970;48.774;9.280;2023-05-24T07:45:57;13.60;99.90
56103;DHT22;41970;48.774;9.280;2023-05-24T07:48:23;13.50;99.90
56103;DHT22;41970;48.774;9.280;2023-05-24T07:50:49;13.60;99.90
56103;DHT22;41970;48.774;9.280;2023-05-24T07:53:16;13.60;99.90
56103;DHT22;41970;48.774;9.280;2023-05-24T07:55:42;13.60;99.90
56103;DHT22;41970;48.774;9.280;2023-05-24T07:58:09;13.60;99.90
56103;DHT22;41970;48.774;9.280;2023-05-24T08:00:35;13.60;99.90
56103;DHT22;41970;48.774;9.280;2023-05-24T08:03:02;13.60;99.90
56103;DHT22;41970;48.774;9.280;2023-05-24T08:05:29;13.60;99.90
56103;DHT22;41970;48.774;9.280;2023-05-24T08:07:56;13.70;99.90
56103;DHT22;41970;48.774;9.280;2023-05-24T08:10:22;13.70;99.90
56103;DHT22;41970;48.774;9.280;2023-05-24T08:12:48;13.70;99.90
56103;DHT22;41970;48.774;9.280;2023-05-24T08:15:16;13.70;99.90
56103;DHT22;41970;48.774;9.280;2023-05-24T08:17:41;13.70;99.90
56103;DHT22;41970;48.774;9.280;2023-05-24T08:20:08;13.80;99.90
56103;DHT22;41970;48.774;9.280;2023-05-24T08:22:40;13.80;99.90
56103;DHT22;41970;48.774;9.280;2023-05-24T08:25:07;13.90;99.90
56103;DHT22;41970;48.774;9.280;2023-05-24T08:27:33;13.90;99.90
56103;DHT22;41970;48.774;9.280;2023-05-24T08:29:59;13.90;99.90
56103;DHT22;41970;48.774;9.280;2023-05-24T08:32:25;13.90;99.90
56103;DHT22;41970;48.774;9.280;2023-05-24T08:34:51;13.90;99.90
56103;DHT22;41970;48.774;9.280;2023-05-24T08:37:17;13.90;99.90
56103;DHT22;41970;48.774;9.280;2023-05-24T08:39:47;13.90;99.90
56103;DHT22;41970;48.774;9.280;2023-05-24T08:42:15;13.70;99.90
56103;DHT22;41970;48.774;9.280;2023-05-24T08:44:51;13.70;99.90
56103;DHT22;41970;48.774;9.280;2023-05-24T08:47:19;13.70;99.90
56103;DHT22;41970;48.774;9.280;2023-05-24T08:49:49;13.70;99.90
56103;DHT22;41970;48.774;9.280;2023-05-24T08:52:17;13.70;99.90
56103;DHT22;41970;48.774;9.280;2023-05-24T08:54:44;13.80;99.90
56103;DHT22;41970;48.774;9.280;2023-05-24T08:57:10;13.80;99.90
56103;DHT22;41970;48.774;9.280;2023-05-24T08:59:39;13.80;99.90
56103;DHT22;41970;48.774;9.280;2023-05-24T09:02:10;13.80;99.90
56103;DHT22;41970;48.774;9.280;2023-05-24T09:04:41;13.80;99.90
56103;DHT22;41970;48.774;9.280;2023-05-24T09:07:09;13.90;99.90
56103;DHT22;41970;48.774;9.280;2023-05-24T09:09:38;13.90;99.90
56103;DHT22;41970;48.774;9.280;2023-05-24T09:12:10;14.00;99.90
56103;DHT22;41970;48.774;9.280;2023-05-24T09:14:44;14.00;99.90
56103;DHT22;41970;48.774;9.280;2023-05-24T09:17:11;14.00;99.90
56103;DHT22;41970;48.774;9.280;2023-05-24T09:19:43;14.10;99.90
56103;DHT22;41970;48.774;9.280;2023-05-24T09:22:12;14.10;99.90
56103;DHT22;41970;48.774;9.280;2023-05-24T09:25:00;14.20;99.90
56103;DHT22;41970;48.774;9.280;2023-05-24T09:27:27;14.40;99.90
56103;DHT22;41970;48.774;9.280;2023-05-24T09:29:54;14.40;99.90
56103;DHT22;41970;48.774;9.280;2023-05-24T09:32:21;14.40;99.90
56103;DHT22;41970;48.774;9.280;2023-05-24T09:34:51;14.30;99.70
56103;DHT22;41970;48.774;9.280;2023-05-24T09:37:19;14.30;99.50
56103;DHT22;41970;48.774;9.280;2023-05-24T09:39:46;14.30;99.90
56103;DHT22;41970;48.774;9.280;2023-05-24T09:42:17;14.40;99.70
56103;DHT22;41970;48.774;9.280;2023-05-24T09:44:46;14.30;99.80
56103;DHT22;41970;48.774;9.280;2023-05-24T09:47:13;14.30;99.70
56103;DHT22;41970;48.774;9.280;2023-05-24T09:49:40;14.30;99.90
56103;DHT22;41970;48.774;9.280;2023-05-24T09:52:06;14.30;99.30
56103;DHT22;41970;48.774;9.280;2023-05-24T09:54:32;14.30;99.90
56103;DHT22;41970;48.774;9.280;2023-05-24T09:57:02;14.30;99.90
56103;DHT22;41970;48.774;9.280;2023-05-24T09:59:32;14.20;99.80
56103;DHT22;41970;48.774;9.280;2023-05-24T10:02:09;14.30;99.90
56103;DHT22;41970;48.774;9.280;2023-05-24T10:04:35;14.40;99.90
56103;DHT22;41970;48.774;9.280;2023-05-24T10:07:01;14.40;99.90
56103;DHT22;41970;48.774;9.280;2023-05-24T10:09:28;14.30;99.90
56103;DHT22;41970;48.774;9.280;2023-05-24T10:12:01;14.30;99.90
56103;DHT22;41970;48.774;9.280;2023-05-24T10:14:33;14.20;99.90
56103;DHT22;41970;48.774;9.280;2023-05-24T10:17:09;14.10;99.90
56103;DHT22;41970;48.774;9.280;2023-05-24T10:19:36;14.10;99.90
56103;DHT22;41970;48.774;9.280;2023-05-24T10:22:06;14.20;99.90
56103;DHT22;41970;48.774;9.280;2023-05-24T10:24:45;14.20;99.90
56103;DHT22;41970;48.774;9.280;2023-05-24T10:27:16;14.20;99.90
56103;DHT22;41970;48.774;9.280;2023-05-24T10:32:14;14.20;99.90
56103;DHT22;41970;48.774;9.280;2023-05-24T10:34:41;14.20;99.90
56103;DHT22;41970;48.774;9.280;2023-05-24T10:37:08;14.20;99.90
56103;DHT22;41970;48.774;9.280;2023-05-24T10:39:34;14.20;99.90
56103;DHT22;41970;48.774;9.280;2023-05-24T10:42:04;14.10;99.90
56103;DHT22;41970;48.774;9.280;2023-05-24T10:44:31;14.10;99.90
56103;DHT22;41970;48.774;9.280;2023-05-24T10:47:10;14.00;99.90
56103;DHT22;41970;48.774;9.280;2023-05-24T10:49:37;14.00;99.90
56103;DHT22;41970;48.774;9.280;2023-05-24T10:52:08;13.90;99.90
56103;DHT22;41970;48.774;9.280;2023-05-24T10:54:34;13.90;99.90
56103;DHT22;41970;48.774;9.280;2023-05-24T10:57:02;13.90;99.90
56103;DHT22;41970;48.774;9.280;2023-05-24T10:59:34;13.90;99.90
56103;DHT22;41970;48.774;9.280;2023-05-24T11:02:08;13.90;99.90
56103;DHT22;41970;48.774;9.280;2023-05-24T11:04:39;13.80;99.90
56103;DHT22;41970;48.774;9.280;2023-05-24T11:07:06;13.80;99.90
56103;DHT22;41970;48.774;9.280;2023-05-24T11:09:37;13.80;99.90
56103;DHT22;41970;48.774;9.280;2023-05-24T11:12:08;13.90;99.90
56103;DHT22;41970;48.774;9.280;2023-05-24T11:14:38;13.90;99.90
56103;DHT22;41970;48.774;9.280;2023-05-24T11:17:05;13.90;99.90
56103;DHT22;41970;48.774;9.280;2023-05-24T11:19:44;14.00;99.80
56103;DHT22;41970;48.774;9.280;2023-05-24T11:22:12;14.00;99.90
56103;DHT22;41970;48.774;9.280;2023-05-24T11:24:40;14.10;99.90
56103;DHT22;41970;48.774;9.280;2023-05-24T11:27:06;14.20;99.60
56103;DHT22;41970;48.774;9.280;2023-05-24T11:29:45;14.30;99.50
56103;DHT22;41970;48.774;9.280;2023-05-24T11:32:19;14.20;98.90
56103;DHT22;41970;48.774;9.280;2023-05-24T11:34:46;14.30;99.20
56103;DHT22;41970;48.774;9.280;2023-05-24T11:37:12;14.30;98.60
56103;DHT22;41970;48.774;9.280;2023-05-24T11:39:38;14.40;98.40
56103;DHT22;41970;48.774;9.280;2023-05-24T11:42:05;14.50;98.30
56103;DHT22;41970;48.774;9.280;2023-05-24T11:44:31;14.60;98.60
56103;DHT22;41970;48.774;9.280;2023-05-24T11:46:58;14.60;98.10
56103;DHT22;41970;48.774;9.280;2023-05-24T11:49:25;14.70;98.90
56103;DHT22;41970;48.774;9.280;2023-05-24T11:51:54;14.70;97.50
56103;DHT22;41970;48.774;9.280;2023-05-24T11:54:22;14.70;97.10
56103;DHT22;41970;48.774;9.280;2023-05-24T11:56:47;14.70;97.60
56103;DHT22;41970;48.774;9.280;2023-05-24T11:59:21;14.70;97.00
56103;DHT22;41970;48.774;9.280;2023-05-24T12:01:47;14.80;96.70
56103;DHT22;41970;48.774;9.280;2023-05-24T12:04:16;14.90;95.80
56103;DHT22;41970;48.774;9.280;2023-05-24T12:06:43;14.70;95.90
56103;DHT22;41970;48.774;9.280;2023-05-24T12:09:10;14.50;95.80
56103;DHT22;41970;48.774;9.280;2023-05-24T12:11:42;14.60;95.90
56103;DHT22;41970;48.774;9.280;2023-05-24T12:14:16;14.80;95.30
56103;DHT22;41970;48.774;9.280;2023-05-24T12:16:42;14.80;95.30
56103;DHT22;41970;48.774;9.280;2023-05-24T12:19:15;14.90;95.20
56103;DHT22;41970;48.774;9.280;2023-05-24T12:21:41;15.10;95.50
56103;DHT22;41970;48.774;9.280;2023-05-24T12:24:10;15.20;94.60
56103;DHT22;41970;48.774;9.280;2023-05-24T12:26:43;15.30;94.90
56103;DHT22;41970;48.774;9.280;2023-05-24T12:29:10;15.50;94.20
56103;DHT22;41970;48.774;9.280;2023-05-24T12:31:39;15.60;93.70
56103;DHT22;41970;48.774;9.280;2023-05-24T12:34:06;15.70;92.80
56103;DHT22;41970;48.774;9.280;2023-05-24T12:36:33;15.70;94.60
56103;DHT22;41970;48.774;9.280;2023-05-24T12:39:15;15.70;92.20
56103;DHT22;41970;48.774;9.280;2023-05-24T12:41:42;15.70;91.90
56103;DHT22;41970;48.774;9.280;2023-05-24T12:44:10;15.90;91.20
56103;DHT22;41970;48.774;9.280;2023-05-24T12:46:36;15.90;92.30
56103;DHT22;41970;48.774;9.280;2023-05-24T12:49:01;15.90;91.90
56103;DHT22;41970;48.774;9.280;2023-05-24T12:51:29;15.40;91.40
56103;DHT22;41970;48.774;9.280;2023-05-24T12:53:55;15.50;92.50
56103;DHT22;41970;48.774;9.280;2023-05-24T12:56:21;15.70;91.80
56103;DHT22;41970;48.774;9.280;2023-05-24T12:58:49;15.70;90.30
56103;DHT22;41970;48.774;9.280;2023-05-24T13:01:15;15.60;90.90
56103;DHT22;41970;48.774;9.280;2023-05-24T13:03:41;15.40;91.10
56103;DHT22;41970;48.774;9.280;2023-05-24T13:06:07;15.50;92.30
56103;DHT22;41970;48.774;9.280;2023-05-24T13:08:33;15.60;92.40
56103;DHT22;41970;48.774;9.280;2023-05-24T13:10:59;15.70;92.60
56103;DHT22;41970;48.774;9.280;2023-05-24T13:13:24;15.80;92.60
56103;DHT22;41970;48.774;9.280;2023-05-24T13:15:51;16.10;92.30
56103;DHT22;41970;48.774;9.280;2023-05-24T13:18:16;16.30;91.60
56103;DHT22;41970;48.774;9.280;2023-05-24T13:20:42;16.50;91.10
56103;DHT22;41970;48.774;9.280;2023-05-24T13:23:08;16.70;91.20
56103;DHT22;41970;48.774;9.280;2023-05-24T13:25:34;16.40;90.80
56103;DHT22;41970;48.774;9.280;2023-05-24T13:28:00;16.00;91.40
56103;DHT22;41970;48.774;9.280;2023-05-24T13:30:25;16.00;92.30
56103;DHT22;41970;48.774;9.280;2023-05-24T13:32:55;16.20;91.80
56103;DHT22;41970;48.774;9.280;2023-05-24T13:35:23;16.40;91.50
56103;DHT22;41970;48.774;9.280;2023-05-24T13:37:49;16.60;91.00
56103;DHT22;41970;48.774;9.280;2023-05-24T13:40:16;16.80;90.50
56103;DHT22;41970;48.774;9.280;2023-05-24T13:42:42;16.70;90.80
56103;DHT22;41970;48.774;9.280;2023-05-24T13:45:09;16.50;90.60
56103;DHT22;41970;48.774;9.280;2023-05-24T13:47:34;16.40;91.70
56103;DHT22;41970;48.774;9.280;2023-05-24T13:50:00;16.50;91.60
56103;DHT22;41970;48.774;9.280;2023-05-24T13:52:26;16.70;91.20
56103;DHT22;41970;48.774;9.280;2023-05-24T13:54:52;16.90;91.50
56103;DHT22;41970;48.774;9.280;2023-05-24T13:57:18;17.10;91.10
56103;DHT22;41970;48.774;9.280;2023-05-24T13:59:43;17.10;91.60
56103;DHT22;41970;48.774;9.280;2023-05-24T14:02:09;17.20;91.00
56103;DHT22;41970;48.774;9.280;2023-05-24T14:04:35;17.20;89.80
56103;DHT22;41970;48.774;9.280;2023-05-24T14:07:01;17.20;90.00
56103;DHT22;41970;48.774;9.280;2023-05-24T14:09:26;17.20;89.20
56103;DHT22;41970;48.774;9.280;2023-05-24T14:11:52;17.20;89.10
56103;DHT22;41970;48.774;9.280;2023-05-24T14:14:18;17.00;89.70
56103;DHT22;41970;48.774;9.280;2023-05-24T14:16:44;16.90;89.40
56103;DHT22;41970;48.774;9.280;2023-05-24T14:19:12;17.10;90.50
56103;DHT22;41970;48.774;9.280;2023-05-24T14:21:38;17.20;90.30
56103;DHT22;41970;48.774;9.280;2023-05-24T14:24:05;17.20;88.50
56103;DHT22;41970;48.774;9.280;2023-05-24T14:26:31;17.10;89.40
56103;DHT22;41970;48.774;9.280;2023-05-24T14:28:57;17.20;89.00
56103;DHT22;41970;48.774;9.280;2023-05-24T14:31:23;17.30;90.10
56103;DHT22;41970;48.774;9.280;2023-05-24T14:33:49;17.30;87.60
56103;DHT22;41970;48.774;9.280;2023-05-24T14:36:15;17.10;87.10
56103;DHT22;41970;48.774;9.280;2023-05-24T14:38:41;17.20;88.30
56103;DHT22;41970;48.774;9.280;2023-05-24T14:41:06;17.40;90.10
56103;DHT22;41970;48.774;9.280;2023-05-24T14:43:33;17.60;90.00
56103;DHT22;41970;48.774;9.280;2023-05-24T14:46:02;17.70;88.80
56103;DHT22;41970;48.774;9.280;2023-05-24T14:48:28;17.70;89.10
56103;DHT22;41970;48.774;9.280;2023-05-24T14:50:54;17.70;88.50
56103;DHT22;41970;48.774;9.280;2023-05-24T14:53:19;17.80;87.20
56103;DHT22;41970;48.774;9.280;2023-05-24T14:55:45;17.80;86.70
56103;DHT22;41970;48.774;9.280;2023-05-24T14:58:11;17.80;85.30
56103;DHT22;41970;48.774;9.280;2023-05-24T15:00:37;17.30;87.10
56103;DHT22;41970;48.774;9.280;2023-05-24T15:03:03;17.10;87.10
56103;DHT22;41970;48.774;9.280;2023-05-24T15:05:33;16.90;87.10
56103;DHT22;41970;48.774;9.280;2023-05-24T15:07:59;16.80;85.10
56103;DHT22;41970;48.774;9.280;2023-05-24T15:10:25;16.70;84.30
56103;DHT22;41970;48.774;9.280;2023-05-24T15:12:51;16.60;85.40
56103;DHT22;41970;48.774;9.280;2023-05-24T15:15:17;16.70;86.10
56103;DHT22;41970;48.774;9.280;2023-05-24T15:17:43;16.70;84.30
56103;DHT22;41970;48.774;9.280;2023-05-24T15:20:09;16.60;85.00
56103;DHT22;41970;48.774;9.280;2023-05-24T15:22:35;16.60;85.80
56103;DHT22;41970;48.774;9.280;2023-05-24T15:25:01;16.70;84.80
56103;DHT22;41970;48.774;9.280;2023-05-24T15:27:27;16.80;85.40
56103;DHT22;41970;48.774;9.280;2023-05-24T15:29:52;16.90;85.90
56103;DHT22;41970;48.774;9.280;2023-05-24T15:32:23;17.20;85.20
56103;DHT22;41970;48.774;9.280;2023-05-24T15:34:49;17.30;83.30
56103;DHT22;41970;48.774;9.280;2023-05-24T15:37:15;17.40;84.30
56103;DHT22;41970;48.774;9.280;2023-05-24T15:39:44;17.60;84.00
56103;DHT22;41970;48.774;9.280;2023-05-24T15:42:09;17.60;83.00
56103;DHT22;41970;48.774;9.280;2023-05-24T15:44:35;17.70;82.80
56103;DHT22;41970;48.774;9.280;2023-05-24T15:47:01;17.70;81.90
56103;DHT22;41970;48.774;9.280;2023-05-24T15:49:28;17.80;81.80
56103;DHT22;41970;48.774;9.280;2023-05-24T15:51:53;17.90;81.60
56103;DHT22;41970;48.774;9.280;2023-05-24T15:54:19;18.00;82.30
56103;DHT22;41970;48.774;9.280;2023-05-24T15:56:45;18.00;84.60